createdAt,value
2017-02-14T00:00:07.609Z,963.30
2017-02-14T00:01:08.106Z,963.33
2017-02-14T00:02:07.970Z,963.33
2017-02-14T00:03:07.946Z,963.33
2017-02-14T00:04:07.499Z,963.33
2017-02-14T00:05:08.037Z,963.35
2017-02-14T00:06:07.521Z,963.31
2017-02-14T00:07:08.169Z,963.29
2017-02-14T00:08:07.681Z,963.36
2017-02-14T00:09:08.262Z,963.37
2017-02-14T00:10:07.861Z,963.38
2017-02-14T00:11:07.701Z,963.43
2017-02-14T00:12:08.524Z,963.42
2017-02-14T00:13:08.032Z,963.48
2017-02-14T00:14:07.560Z,963.49
2017-02-14T00:15:08.084Z,963.46
2017-02-14T00:16:07.719Z,963.47
2017-02-14T00:17:08.428Z,963.50
2017-02-14T00:18:08.055Z,963.48
2017-02-14T00:19:07.625Z,963.50
2017-02-14T00:20:08.122Z,963.48
2017-02-14T00:21:07.887Z,963.48
2017-02-14T00:22:07.407Z,963.42
2017-02-14T00:23:07.992Z,963.40
2017-02-14T00:24:07.511Z,963.43
2017-02-14T00:25:07.991Z,963.45
2017-02-14T00:26:07.536Z,963.43
2017-02-14T00:27:08.048Z,963.46
2017-02-14T00:28:07.586Z,963.43
2017-02-14T00:29:08.158Z,963.44
2017-02-14T00:30:07.650Z,963.43
2017-02-14T00:31:08.192Z,963.44
2017-02-14T00:32:07.726Z,963.47
2017-02-14T00:33:08.296Z,963.44
2017-02-14T00:34:07.893Z,963.47
2017-02-14T00:35:07.484Z,963.43
2017-02-14T00:36:08.000Z,963.47
2017-02-14T00:37:07.543Z,963.48
2017-02-14T00:38:08.147Z,963.52
2017-02-14T00:39:07.709Z,963.53
2017-02-14T00:40:08.269Z,963.51
2017-02-14T00:41:07.927Z,963.55
2017-02-14T00:42:07.815Z,963.54
2017-02-14T00:43:07.492Z,963.50
2017-02-14T00:44:08.092Z,963.53
2017-02-14T00:45:07.642Z,963.54
2017-02-14T00:46:08.226Z,963.57
2017-02-14T00:47:07.720Z,963.63
2017-02-14T00:48:08.370Z,963.62
2017-02-14T00:49:07.897Z,963.61
2017-02-14T00:50:07.523Z,963.59
2017-02-14T00:51:08.149Z,963.60
2017-02-14T00:52:07.803Z,963.63
2017-02-14T00:53:07.648Z,963.62
2017-02-14T00:54:08.386Z,963.60
2017-02-14T00:55:07.988Z,963.69
2017-02-14T00:56:07.513Z,963.66
2017-02-14T00:57:08.070Z,963.63
2017-02-14T00:58:07.660Z,963.65
2017-02-14T00:59:08.241Z,963.65
2017-02-14T01:00:07.999Z,963.63
2017-02-14T01:01:07.719Z,963.67
2017-02-14T01:02:08.349Z,963.68
2017-02-14T01:03:07.956Z,963.62
2017-02-14T01:04:07.673Z,963.64
2017-02-14T01:05:07.955Z,963.66
2017-02-14T01:06:07.433Z,963.65
2017-02-14T01:07:07.741Z,963.68
2017-02-14T01:08:08.133Z,963.69
2017-02-14T01:09:07.700Z,963.74
2017-02-14T01:10:08.250Z,963.75
2017-02-14T01:11:08.295Z,963.76
2017-02-14T01:12:07.769Z,963.79
2017-02-14T01:13:07.676Z,963.75
2017-02-14T01:14:08.397Z,963.72
2017-02-14T01:15:08.140Z,963.76
2017-02-14T01:16:08.382Z,963.72
2017-02-14T01:17:07.318Z,963.77
2017-02-14T01:18:07.376Z,963.74
2017-02-14T01:19:07.455Z,963.77
2017-02-14T01:20:08.314Z,963.75
2017-02-14T01:21:07.865Z,963.71
2017-02-14T01:22:07.599Z,963.75
2017-02-14T01:23:07.693Z,963.73
2017-02-14T01:24:08.535Z,963.70
2017-02-14T01:25:08.072Z,963.74
2017-02-14T01:26:07.893Z,963.75
2017-02-14T01:27:07.678Z,963.73
2017-02-14T01:28:08.284Z,963.78
2017-02-14T01:29:07.859Z,963.83
2017-02-14T01:30:07.388Z,963.84
2017-02-14T01:31:07.893Z,963.81
2017-02-14T01:32:07.482Z,963.77
2017-02-14T01:33:08.153Z,963.79
2017-02-14T01:34:07.903Z,963.81
2017-02-14T01:35:07.799Z,963.82
2017-02-14T01:36:07.625Z,963.83
2017-02-14T01:37:08.224Z,963.83
2017-02-14T01:38:07.836Z,963.83
2017-02-14T01:39:07.351Z,963.86
2017-02-14T01:40:07.906Z,963.87
2017-02-14T01:41:07.378Z,963.88
2017-02-14T01:42:08.143Z,963.89
2017-02-14T01:43:07.698Z,963.85
2017-02-14T01:44:08.198Z,963.88
2017-02-14T01:45:08.059Z,963.86
2017-02-14T01:46:07.607Z,963.86
2017-02-14T01:47:08.194Z,963.85
2017-02-14T01:48:07.890Z,963.84
2017-02-14T01:49:07.746Z,963.84
2017-02-14T01:50:08.315Z,963.81
2017-02-14T01:51:07.836Z,963.85
2017-02-14T01:52:07.344Z,963.86
2017-02-14T01:53:08.098Z,963.87
2017-02-14T01:54:07.874Z,963.88
2017-02-14T01:55:07.407Z,963.85
2017-02-14T01:56:07.976Z,963.83
2017-02-14T01:57:07.479Z,963.82
2017-02-14T01:58:08.072Z,963.79
2017-02-14T01:59:07.634Z,963.77
2017-02-14T02:00:08.195Z,963.80
2017-02-14T02:01:07.963Z,963.75
2017-02-14T02:02:07.423Z,963.78
2017-02-14T02:03:08.015Z,963.75
2017-02-14T02:04:07.818Z,963.76
2017-02-14T02:05:07.626Z,963.77
2017-02-14T02:06:08.234Z,963.80
2017-02-14T02:07:07.991Z,963.82
2017-02-14T02:08:07.627Z,963.85
2017-02-14T02:09:08.213Z,963.78
2017-02-14T02:10:07.787Z,963.84
2017-02-14T02:11:07.297Z,963.82
2017-02-14T02:12:07.914Z,963.86
2017-02-14T02:13:07.381Z,963.86
2017-02-14T02:14:08.034Z,963.87
2017-02-14T02:15:07.825Z,963.87
2017-02-14T02:16:07.536Z,963.88
2017-02-14T02:17:08.253Z,963.89
2017-02-14T02:18:07.923Z,963.94
2017-02-14T02:19:07.503Z,963.91
2017-02-14T02:20:08.147Z,963.89
2017-02-14T02:21:07.667Z,963.97
2017-02-14T02:22:08.184Z,964.00
2017-02-14T02:23:07.776Z,964.04
2017-02-14T02:24:07.301Z,964.03
2017-02-14T02:25:07.930Z,964.05
2017-02-14T02:26:07.414Z,964.07
2017-02-14T02:27:08.006Z,964.09
2017-02-14T02:28:07.691Z,964.09
2017-02-14T02:29:08.321Z,964.10
2017-02-14T02:30:08.302Z,964.09
2017-02-14T02:31:07.866Z,964.15
2017-02-14T02:32:07.362Z,964.14
2017-02-14T02:33:07.865Z,964.14
2017-02-14T02:34:07.344Z,964.10
2017-02-14T02:35:07.854Z,964.17
2017-02-14T02:36:07.292Z,964.11
2017-02-14T02:37:08.314Z,964.13
2017-02-14T02:38:07.918Z,964.07
2017-02-14T02:39:07.376Z,964.06
2017-02-14T02:40:08.284Z,964.07
2017-02-14T02:41:07.926Z,964.15
2017-02-14T02:42:08.606Z,964.18
2017-02-14T02:43:08.123Z,964.12
2017-02-14T02:44:07.692Z,964.09
2017-02-14T02:45:08.182Z,964.08
2017-02-14T02:46:07.964Z,964.06
2017-02-14T02:47:07.623Z,964.09
2017-02-14T02:48:08.069Z,964.10
2017-02-14T02:49:07.993Z,964.07
2017-02-14T02:50:07.533Z,964.06
2017-02-14T02:51:08.094Z,964.09
2017-02-14T02:52:07.592Z,964.13
2017-02-14T02:53:08.169Z,964.14
2017-02-14T02:54:07.690Z,964.18
2017-02-14T02:55:08.222Z,964.12
2017-02-14T02:56:07.708Z,964.13
2017-02-14T02:57:08.252Z,964.10
2017-02-14T02:58:07.717Z,964.10
2017-02-14T02:59:07.477Z,964.08
2017-02-14T03:00:07.595Z,964.15
2017-02-14T03:01:08.076Z,964.10
2017-02-14T03:02:07.946Z,964.13
2017-02-14T03:03:08.040Z,964.13
2017-02-14T03:04:07.923Z,964.12
2017-02-14T03:05:07.457Z,964.13
2017-02-14T03:06:08.062Z,964.17
2017-02-14T03:07:07.574Z,964.18
2017-02-14T03:08:08.140Z,964.17
2017-02-14T03:09:07.669Z,964.16
2017-02-14T03:10:08.260Z,964.16
2017-02-14T03:11:07.869Z,964.14
2017-02-14T03:12:07.624Z,964.22
2017-02-14T03:13:08.112Z,964.22
2017-02-14T03:14:07.754Z,964.23
2017-02-14T03:15:07.292Z,964.27
2017-02-14T03:16:07.901Z,964.23
2017-02-14T03:17:24.180Z,964.30
2017-02-14T03:18:07.727Z,964.27
2017-02-14T03:19:08.293Z,964.28
2017-02-14T03:20:07.793Z,964.23
2017-02-14T03:21:07.372Z,964.23
2017-02-14T03:22:08.150Z,964.20
2017-02-14T03:23:07.706Z,964.22
2017-02-14T03:24:08.245Z,964.24
2017-02-14T03:25:07.955Z,964.23
2017-02-14T03:26:07.571Z,964.31
2017-02-14T03:27:08.336Z,964.30
2017-02-14T03:28:07.951Z,964.32
2017-02-14T03:29:07.509Z,964.24
2017-02-14T03:30:08.037Z,964.24
2017-02-14T03:31:07.547Z,964.27
2017-02-14T03:32:08.075Z,964.29
2017-02-14T03:33:07.592Z,964.33
2017-02-14T03:34:08.186Z,964.32
2017-02-14T03:35:07.771Z,964.32
2017-02-14T03:36:07.256Z,964.27
2017-02-14T03:37:07.741Z,964.30
2017-02-14T03:38:08.299Z,964.30
2017-02-14T03:39:07.768Z,964.35
2017-02-14T03:40:07.285Z,964.30
2017-02-14T03:41:07.907Z,964.33
2017-02-14T03:42:07.373Z,964.34
2017-02-14T03:43:07.877Z,964.37
2017-02-14T03:44:08.145Z,964.47
2017-02-14T03:45:07.764Z,964.43
2017-02-14T03:46:07.494Z,964.46
2017-02-14T03:47:08.061Z,964.37
2017-02-14T03:48:07.623Z,964.45
2017-02-14T03:49:08.204Z,964.40
2017-02-14T03:50:07.784Z,964.40
2017-02-14T03:51:07.289Z,964.39
2017-02-14T03:52:07.820Z,964.45
2017-02-14T03:53:07.451Z,964.41
2017-02-14T03:54:08.002Z,964.40
2017-02-14T03:55:07.544Z,964.45
2017-02-14T03:56:08.163Z,964.46
2017-02-14T03:57:07.681Z,964.48
2017-02-14T03:58:08.253Z,964.44
2017-02-14T03:59:07.826Z,964.41
2017-02-14T04:00:07.363Z,964.53
2017-02-14T04:01:08.040Z,964.48
2017-02-14T04:02:07.524Z,964.57
2017-02-14T04:03:08.033Z,964.56
2017-02-14T04:04:07.499Z,964.50
2017-02-14T04:05:08.051Z,964.50
2017-02-14T04:06:07.549Z,964.53
2017-02-14T04:07:08.021Z,964.52
2017-02-14T04:08:07.701Z,964.51
2017-02-14T04:09:07.799Z,964.55
2017-02-14T04:10:07.305Z,964.62
2017-02-14T04:11:07.904Z,964.59
2017-02-14T04:12:07.391Z,964.55
2017-02-14T04:13:07.902Z,964.50
2017-02-14T04:14:07.409Z,964.50
2017-02-14T04:15:07.868Z,964.58
2017-02-14T04:16:07.576Z,964.59
2017-02-14T04:17:08.247Z,964.56
2017-02-14T04:18:07.761Z,964.58
2017-02-14T04:19:07.271Z,964.59
2017-02-14T04:20:07.774Z,964.58
2017-02-14T04:21:07.376Z,964.59
2017-02-14T04:22:07.870Z,964.59
2017-02-14T04:23:07.347Z,964.57
2017-02-14T04:24:07.940Z,964.59
2017-02-14T04:25:08.004Z,964.66
2017-02-14T04:26:07.634Z,964.64
2017-02-14T04:27:08.148Z,964.63
2017-02-14T04:28:07.591Z,964.62
2017-02-14T04:29:08.050Z,964.63
2017-02-14T04:30:07.607Z,964.66
2017-02-14T04:31:08.223Z,964.59
2017-02-14T04:32:07.784Z,964.60
2017-02-14T04:33:07.333Z,964.60
2017-02-14T04:34:07.872Z,964.58
2017-02-14T04:35:07.410Z,964.59
2017-02-14T04:36:08.185Z,964.60
2017-02-14T04:37:08.076Z,964.65
2017-02-14T04:38:07.811Z,964.70
2017-02-14T04:39:07.304Z,964.73
2017-02-14T04:40:08.122Z,964.75
2017-02-14T04:41:07.739Z,964.76
2017-02-14T04:42:08.377Z,964.82
2017-02-14T04:43:07.925Z,964.78
2017-02-14T04:44:07.467Z,964.74
2017-02-14T04:45:08.001Z,964.74
2017-02-14T04:46:07.578Z,964.72
2017-02-14T04:47:08.160Z,964.68
2017-02-14T04:48:07.628Z,964.72
2017-02-14T04:49:08.187Z,964.70
2017-02-14T04:50:07.680Z,964.71
2017-02-14T04:51:08.392Z,964.73
2017-02-14T04:52:07.987Z,964.78
2017-02-14T04:53:07.482Z,964.75
2017-02-14T04:54:08.059Z,964.75
2017-02-14T04:55:07.547Z,964.76
2017-02-14T04:56:08.155Z,964.75
2017-02-14T04:57:07.644Z,964.81
2017-02-14T04:58:08.225Z,964.77
2017-02-14T04:59:07.669Z,964.78
2017-02-14T05:00:08.477Z,964.76
2017-02-14T05:01:08.086Z,964.79
2017-02-14T05:02:07.701Z,964.78
2017-02-14T05:03:08.290Z,964.74
2017-02-14T05:04:07.799Z,964.77
2017-02-14T05:05:07.417Z,964.76
2017-02-14T05:06:07.888Z,964.78
2017-02-14T05:07:28.132Z,964.78
2017-02-14T05:08:07.625Z,964.76
2017-02-14T05:09:08.398Z,964.79
2017-02-14T05:10:07.887Z,964.78
2017-02-14T05:11:07.446Z,964.79
2017-02-14T05:12:08.452Z,964.84
2017-02-14T05:13:08.050Z,964.86
2017-02-14T05:14:07.592Z,964.84
2017-02-14T05:15:08.162Z,964.89
2017-02-14T05:16:07.738Z,964.87
2017-02-14T05:17:08.421Z,964.89
2017-02-14T05:18:07.896Z,964.92
2017-02-14T05:19:07.763Z,964.85
2017-02-14T05:20:07.546Z,964.92
2017-02-14T05:21:08.036Z,964.89
2017-02-14T05:22:07.974Z,964.95
2017-02-14T05:23:07.608Z,964.97
2017-02-14T05:24:08.204Z,965.00
2017-02-14T05:25:10.429Z,965.04
2017-02-14T05:26:08.283Z,965.04
2017-02-14T05:27:07.747Z,965.11
2017-02-14T05:28:08.350Z,965.10
2017-02-14T05:29:07.891Z,965.09
2017-02-14T05:30:07.471Z,965.09
2017-02-14T05:31:08.079Z,965.12
2017-02-14T05:32:07.644Z,965.11
2017-02-14T05:33:08.091Z,965.11
2017-02-14T05:34:07.490Z,965.14
2017-02-14T05:35:08.068Z,965.12
2017-02-14T05:36:07.653Z,965.14
2017-02-14T05:37:08.220Z,965.10
2017-02-14T05:38:07.811Z,965.13
2017-02-14T05:39:07.362Z,965.10
2017-02-14T05:40:07.885Z,965.11
2017-02-14T05:41:07.418Z,965.11
2017-02-14T05:42:08.418Z,965.17
2017-02-14T05:43:08.017Z,965.20
2017-02-14T05:44:07.535Z,965.25
2017-02-14T05:45:08.043Z,965.26
2017-02-14T05:46:07.718Z,965.25
2017-02-14T05:47:08.282Z,965.29
2017-02-14T05:48:07.915Z,965.31
2017-02-14T05:49:07.440Z,965.30
2017-02-14T05:50:08.008Z,965.29
2017-02-14T05:51:07.462Z,965.31
2017-02-14T05:52:08.077Z,965.33
2017-02-14T05:53:07.677Z,965.33
2017-02-14T05:54:07.377Z,965.32
2017-02-14T05:55:07.875Z,965.31
2017-02-14T05:56:07.386Z,965.33
2017-02-14T05:57:07.961Z,965.33
2017-02-14T05:58:07.551Z,965.35
2017-02-14T05:59:08.135Z,965.39
2017-02-14T06:00:07.666Z,965.39
2017-02-14T06:01:07.366Z,965.44
2017-02-14T06:02:07.991Z,965.45
2017-02-14T06:03:07.627Z,965.39
2017-02-14T06:04:08.167Z,965.36
2017-02-14T06:05:07.625Z,965.38
2017-02-14T06:06:07.429Z,965.36
2017-02-14T06:07:08.029Z,965.38
2017-02-14T06:08:22.390Z,965.43
2017-02-14T06:09:07.825Z,965.39
2017-02-14T06:10:07.514Z,965.46
2017-02-14T06:11:08.060Z,965.41
2017-02-14T06:12:07.786Z,965.39
2017-02-14T06:13:07.320Z,965.38
2017-02-14T06:14:07.909Z,965.44
2017-02-14T06:15:07.702Z,965.46
2017-02-14T06:16:09.426Z,965.46
2017-02-14T06:17:08.246Z,965.53
2017-02-14T06:18:29.377Z,965.51
2017-02-14T06:19:08.066Z,965.55
2017-02-14T06:20:07.678Z,965.53
2017-02-14T06:21:08.150Z,965.55
2017-02-14T06:22:07.948Z,965.56
2017-02-14T06:23:07.920Z,965.57
2017-02-14T06:24:27.130Z,965.61
2017-02-14T06:25:07.677Z,965.61
2017-02-14T06:26:08.190Z,965.62
2017-02-14T06:27:07.713Z,965.59
2017-02-14T06:28:08.246Z,965.61
2017-02-14T06:29:07.801Z,965.64
2017-02-14T06:30:07.338Z,965.67
2017-02-14T06:31:07.927Z,965.68
2017-02-14T06:32:27.255Z,965.74
2017-02-14T06:33:08.062Z,965.77
2017-02-14T06:34:08.228Z,965.77
2017-02-14T06:35:08.019Z,965.83
2017-02-14T06:36:07.710Z,965.80
2017-02-14T06:37:08.321Z,965.82
2017-02-14T06:38:07.508Z,965.82
2017-02-14T06:39:08.189Z,965.84
2017-02-14T06:40:08.843Z,965.87
2017-02-14T06:41:07.523Z,965.91
2017-02-14T06:42:08.047Z,965.85
2017-02-14T06:43:07.700Z,965.86
2017-02-14T06:44:08.298Z,965.82
2017-02-14T06:45:08.088Z,965.89
2017-02-14T06:46:07.689Z,965.85
2017-02-14T06:47:08.383Z,965.90
2017-02-14T06:48:17.927Z,965.88
2017-02-14T06:49:07.403Z,966.00
2017-02-14T06:50:08.340Z,966.07
2017-02-14T06:51:07.803Z,966.10
2017-02-14T06:52:07.322Z,966.16
2017-02-14T06:53:09.010Z,966.13
2017-02-14T06:54:07.642Z,966.16
2017-02-14T06:55:08.206Z,966.12
2017-02-14T06:56:07.839Z,966.11
2017-02-14T06:57:07.691Z,966.13
2017-02-14T06:58:08.408Z,966.14
2017-02-14T06:59:07.976Z,966.17
2017-02-14T07:00:07.710Z,966.19
2017-02-14T07:01:08.281Z,966.20
2017-02-14T07:02:07.850Z,966.23
2017-02-14T07:03:07.518Z,966.23
2017-02-14T07:04:08.098Z,966.29
2017-02-14T07:05:07.704Z,966.22
2017-02-14T07:06:08.299Z,966.24
2017-02-14T07:07:08.077Z,966.26
2017-02-14T07:08:07.960Z,966.17
2017-02-14T07:09:07.566Z,966.23
2017-02-14T07:10:08.098Z,966.26
2017-02-14T07:11:07.682Z,966.30
2017-02-14T07:12:09.171Z,966.32
2017-02-14T07:13:07.967Z,966.37
2017-02-14T07:14:07.473Z,966.36
2017-02-14T07:15:08.040Z,966.33
2017-02-14T07:16:07.705Z,966.38
2017-02-14T07:17:08.460Z,966.33
2017-02-14T07:18:07.981Z,966.40
2017-02-14T07:19:07.562Z,966.36
2017-02-14T07:20:08.143Z,966.34
2017-02-14T07:21:07.731Z,966.38
2017-02-14T07:22:08.351Z,966.38
2017-02-14T07:23:07.917Z,966.39
2017-02-14T07:24:07.412Z,966.38
2017-02-14T07:25:08.063Z,966.40
2017-02-14T07:26:07.592Z,966.37
2017-02-14T07:27:08.124Z,966.38
2017-02-14T07:28:07.646Z,966.38
2017-02-14T07:29:08.203Z,966.41
2017-02-14T07:30:28.472Z,966.45
2017-02-14T07:31:08.036Z,966.44
2017-02-14T07:32:07.569Z,966.52
2017-02-14T07:33:09.254Z,966.50
2017-02-14T07:34:07.992Z,966.52
2017-02-14T07:35:07.648Z,966.53
2017-02-14T07:36:08.144Z,966.48
2017-02-14T07:37:07.815Z,966.51
2017-02-14T07:38:08.369Z,966.52
2017-02-14T07:39:08.270Z,966.53
2017-02-14T07:40:08.061Z,966.54
2017-02-14T07:41:07.616Z,966.56
2017-02-14T07:42:08.130Z,966.56
2017-02-14T07:43:07.675Z,966.59
2017-02-14T07:44:08.240Z,966.58
2017-02-14T07:45:07.763Z,966.59
2017-02-14T07:46:07.353Z,966.52
2017-02-14T07:47:08.011Z,966.52
2017-02-14T07:48:07.522Z,966.57
2017-02-14T07:49:07.888Z,966.51
2017-02-14T07:50:07.797Z,966.51
2017-02-14T07:51:07.357Z,966.51
2017-02-14T07:52:07.991Z,966.46
2017-02-14T07:53:07.508Z,966.52
2017-02-14T07:54:08.148Z,966.55
2017-02-14T07:55:07.732Z,966.61
2017-02-14T07:56:08.266Z,966.64
2017-02-14T07:57:07.754Z,966.64
2017-02-14T07:58:07.289Z,966.63
2017-02-14T07:59:07.845Z,966.63
2017-02-14T08:00:07.734Z,966.66
2017-02-14T08:01:07.270Z,966.67
2017-02-14T08:02:07.884Z,966.66
2017-02-14T08:03:07.395Z,966.71
2017-02-14T08:04:08.057Z,966.70
2017-02-14T08:05:07.657Z,966.72
2017-02-14T08:06:08.132Z,966.74
2017-02-14T08:07:07.611Z,966.71
2017-02-14T08:08:09.267Z,966.69
2017-02-14T08:09:08.153Z,966.64
2017-02-14T08:10:08.172Z,966.67
2017-02-14T08:11:07.971Z,966.64
2017-02-14T08:12:07.450Z,966.66
2017-02-14T08:13:07.902Z,966.69
2017-02-14T08:14:07.392Z,966.67
2017-02-14T08:15:07.901Z,966.74
2017-02-14T08:16:07.405Z,966.74
2017-02-14T08:17:08.179Z,966.77
2017-02-14T08:18:07.772Z,966.76
2017-02-14T08:19:07.367Z,966.79
2017-02-14T08:20:08.198Z,966.82
2017-02-14T08:21:29.784Z,966.82
2017-02-14T08:22:07.331Z,966.83
2017-02-14T08:23:07.888Z,966.85
2017-02-14T08:24:07.447Z,966.81
2017-02-14T08:25:07.941Z,966.81
2017-02-14T08:26:07.438Z,966.81
2017-02-14T08:27:07.972Z,966.79
2017-02-14T08:28:07.612Z,966.82
2017-02-14T08:29:07.835Z,966.81
2017-02-14T08:30:07.475Z,966.85
2017-02-14T08:31:08.364Z,966.83
2017-02-14T08:32:08.151Z,966.80
2017-02-14T08:33:08.037Z,966.81
2017-02-14T08:34:07.960Z,966.82
2017-02-14T08:35:07.441Z,966.82
2017-02-14T08:36:07.943Z,966.83
2017-02-14T08:37:07.852Z,966.80
2017-02-14T08:38:07.461Z,966.78
2017-02-14T08:39:07.946Z,966.80
2017-02-14T08:40:07.601Z,966.81
2017-02-14T08:41:08.393Z,966.86
2017-02-14T08:42:08.006Z,966.87
2017-02-14T08:43:07.583Z,966.90
2017-02-14T08:44:08.099Z,966.95
2017-02-14T08:45:07.555Z,966.96
2017-02-14T08:46:08.076Z,966.92
2017-02-14T08:47:07.712Z,966.94
2017-02-14T08:48:08.229Z,966.99
2017-02-14T08:49:07.809Z,966.97
2017-02-14T08:50:08.020Z,966.98
2017-02-14T08:51:07.515Z,966.95
2017-02-14T08:52:08.038Z,966.94
2017-02-14T08:53:07.835Z,966.99
2017-02-14T08:54:07.517Z,967.00
2017-02-14T08:55:08.398Z,966.95
2017-02-14T08:56:07.979Z,967.00
2017-02-14T08:57:08.610Z,966.97
2017-02-14T08:58:08.289Z,967.02
2017-02-14T08:59:07.846Z,967.05
2017-02-14T09:00:07.344Z,967.07
2017-02-14T09:01:08.301Z,967.08
2017-02-14T09:02:07.845Z,967.11
2017-02-14T09:03:07.369Z,967.13
2017-02-14T09:04:07.955Z,967.14
2017-02-14T09:05:07.488Z,967.10
2017-02-14T09:06:07.408Z,967.14
2017-02-14T09:07:07.933Z,967.11
2017-02-14T09:08:07.457Z,967.11
2017-02-14T09:09:07.972Z,967.12
2017-02-14T09:10:07.503Z,967.13
2017-02-14T09:11:08.040Z,967.06
2017-02-14T09:12:07.527Z,967.05
2017-02-14T09:13:08.192Z,967.08
2017-02-14T09:14:07.735Z,967.14
2017-02-14T09:15:07.521Z,967.08
2017-02-14T09:16:08.056Z,967.10
2017-02-14T09:17:07.909Z,967.08
2017-02-14T09:18:17.411Z,967.06
2017-02-14T09:19:07.978Z,967.07
2017-02-14T09:20:07.472Z,967.06
2017-02-14T09:21:08.044Z,967.06
2017-02-14T09:22:07.532Z,967.09
2017-02-14T09:23:08.143Z,967.07
2017-02-14T09:24:07.663Z,967.12
2017-02-14T09:25:08.474Z,967.10
2017-02-14T09:26:08.227Z,967.12
2017-02-14T09:27:07.789Z,967.10
2017-02-14T09:28:07.250Z,967.11
2017-02-14T09:29:07.864Z,967.06
2017-02-14T09:30:07.344Z,967.11
2017-02-14T09:31:07.920Z,967.10
2017-02-14T09:32:07.401Z,967.11
2017-02-14T09:33:07.971Z,967.14
2017-02-14T09:34:07.560Z,967.12
2017-02-14T09:35:08.448Z,967.17
2017-02-14T09:36:08.881Z,967.15
2017-02-14T09:37:07.641Z,967.17
2017-02-14T09:38:08.256Z,967.22
2017-02-14T09:39:07.920Z,967.22
2017-02-14T09:40:07.489Z,967.21
2017-02-14T09:41:07.960Z,967.19
2017-02-14T09:42:07.876Z,967.22
2017-02-14T09:43:07.361Z,967.17
2017-02-14T09:44:07.987Z,967.17
2017-02-14T09:45:07.778Z,967.19
2017-02-14T09:46:07.537Z,967.18
2017-02-14T09:47:08.998Z,967.17
2017-02-14T09:48:17.473Z,967.14
2017-02-14T09:49:08.097Z,967.13
2017-02-14T09:50:08.731Z,967.10
2017-02-14T09:51:07.569Z,967.07
2017-02-14T09:52:08.142Z,967.09
2017-02-14T09:53:07.779Z,967.11
2017-02-14T09:54:07.373Z,967.11
2017-02-14T09:55:07.948Z,967.16
2017-02-14T09:56:29.084Z,967.08
2017-02-14T09:57:07.803Z,967.11
2017-02-14T09:58:08.086Z,967.11
2017-02-14T09:59:07.663Z,967.09
2017-02-14T10:00:08.224Z,967.10
2017-02-14T10:01:07.761Z,967.10
2017-02-14T10:02:07.346Z,967.09
2017-02-14T10:03:07.832Z,967.07
2017-02-14T10:04:07.535Z,967.06
2017-02-14T10:05:08.126Z,967.10
2017-02-14T10:06:07.789Z,967.11
2017-02-14T10:07:08.374Z,967.11
2017-02-14T10:08:08.009Z,967.14
2017-02-14T10:09:07.866Z,967.13
2017-02-14T10:10:07.524Z,967.16
2017-02-14T10:11:08.061Z,967.23
2017-02-14T10:12:07.591Z,967.22
2017-02-14T10:13:08.230Z,967.23
2017-02-14T10:14:07.824Z,967.23
2017-02-14T10:15:07.421Z,967.24
2017-02-14T10:16:08.031Z,967.23
2017-02-14T10:17:07.817Z,967.22
2017-02-14T10:18:07.526Z,967.19
2017-02-14T10:19:09.262Z,967.24
2017-02-14T10:20:08.229Z,967.25
2017-02-14T10:21:07.779Z,967.26
2017-02-14T10:22:07.282Z,967.18
2017-02-14T10:23:07.847Z,967.25
2017-02-14T10:25:09.388Z,967.27
2017-02-14T10:26:08.043Z,967.25
2017-02-14T10:27:08.482Z,967.25
2017-02-14T10:28:08.079Z,967.24
2017-02-14T10:29:07.828Z,967.23
2017-02-14T10:30:07.418Z,967.28
2017-02-14T10:31:07.987Z,967.22
2017-02-14T10:32:07.581Z,967.25
2017-02-14T10:33:08.192Z,967.28
2017-02-14T10:34:07.742Z,967.29
2017-02-14T10:35:08.372Z,967.29
2017-02-14T10:36:07.858Z,967.29
2017-02-14T10:37:07.707Z,967.30
2017-02-14T10:38:08.246Z,967.26
2017-02-14T10:39:07.860Z,967.27
2017-02-14T10:40:07.476Z,967.28
2017-02-14T10:41:08.477Z,967.29
2017-02-14T10:42:08.330Z,967.31
2017-02-14T10:44:17.295Z,967.32
2017-02-14T10:45:07.875Z,967.31
2017-02-14T10:46:07.350Z,967.30
2017-02-14T10:47:07.954Z,967.44
2017-02-14T10:48:07.406Z,967.37
2017-02-14T10:49:07.892Z,967.33
2017-02-14T10:50:07.498Z,967.30
2017-02-14T10:51:08.066Z,967.35
2017-02-14T10:52:07.677Z,967.30
2017-02-14T10:53:08.234Z,967.30
2017-02-14T10:54:07.855Z,967.28
2017-02-14T10:55:07.445Z,967.29
2017-02-14T10:56:08.031Z,967.28
2017-02-14T10:57:07.520Z,967.28
2017-02-14T10:58:08.130Z,967.26
2017-02-14T10:59:07.679Z,967.28
2017-02-14T11:00:08.274Z,967.30
2017-02-14T11:01:08.757Z,967.25
2017-02-14T11:02:07.640Z,967.23
2017-02-14T11:03:08.222Z,967.21
2017-02-14T11:04:07.770Z,967.24
2017-02-14T11:05:07.277Z,967.24
2017-02-14T11:06:07.709Z,967.22
2017-02-14T11:07:08.234Z,967.20
2017-02-14T11:08:07.814Z,967.18
2017-02-14T11:09:07.275Z,967.17
2017-02-14T11:10:07.867Z,967.15
2017-02-14T11:11:07.400Z,967.13
2017-02-14T11:12:08.346Z,967.11
2017-02-14T11:13:08.005Z,967.12
2017-02-14T11:14:07.846Z,967.07
2017-02-14T11:15:07.333Z,967.07
2017-02-14T11:16:07.934Z,967.07
2017-02-14T11:17:07.890Z,967.09
2017-02-14T11:18:07.467Z,967.10
2017-02-14T11:19:07.997Z,967.14
2017-02-14T11:20:07.584Z,967.12
2017-02-14T11:21:08.104Z,967.13
2017-02-14T11:22:07.884Z,967.09
2017-02-14T11:23:07.418Z,967.06
2017-02-14T11:24:07.954Z,967.08
2017-02-14T11:25:07.462Z,967.10
2017-02-14T11:26:07.962Z,967.07
2017-02-14T11:27:28.054Z,967.04
2017-02-14T11:28:08.517Z,967.03
2017-02-14T11:29:07.820Z,967.05
2017-02-14T11:30:07.327Z,967.01
2017-02-14T11:31:07.866Z,967.01
2017-02-14T11:32:07.363Z,967.00
2017-02-14T11:33:07.878Z,966.99
2017-02-14T11:34:07.395Z,967.04
2017-02-14T11:35:08.007Z,967.01
2017-02-14T11:36:07.476Z,967.02
2017-02-14T11:37:08.083Z,966.99
2017-02-14T11:38:07.621Z,967.01
2017-02-14T11:39:08.225Z,966.97
2017-02-14T11:40:07.814Z,967.00
2017-02-14T11:41:07.386Z,967.00
2017-02-14T11:42:07.975Z,966.98
2017-02-14T11:43:07.601Z,967.02
2017-02-14T11:44:08.153Z,967.01
2017-02-14T11:45:07.648Z,967.01
2017-02-14T11:46:08.394Z,966.98
2017-02-14T11:47:07.988Z,966.96
2017-02-14T11:48:07.461Z,966.97
2017-02-14T11:49:08.009Z,966.92
2017-02-14T11:50:07.586Z,966.88
2017-02-14T11:51:08.219Z,966.91
2017-02-14T11:52:07.764Z,966.83
2017-02-14T11:53:07.272Z,966.79
2017-02-14T11:54:07.936Z,966.79
2017-02-14T11:55:07.480Z,966.81
2017-02-14T11:56:08.199Z,966.81
2017-02-14T11:57:07.692Z,966.85
2017-02-14T11:58:08.271Z,966.87
2017-02-14T11:59:07.896Z,966.80
2017-02-14T12:00:07.429Z,966.82
2017-02-14T12:01:07.998Z,966.84
2017-02-14T12:02:07.902Z,966.79
2017-02-14T12:03:07.417Z,966.80
2017-02-14T12:04:07.342Z,966.82
2017-02-14T12:05:07.938Z,966.78
2017-02-14T12:06:07.510Z,966.72
2017-02-14T12:07:08.074Z,966.72
2017-02-14T12:08:07.653Z,966.72
2017-02-14T12:09:08.245Z,966.75
2017-02-14T12:10:07.816Z,966.81
2017-02-14T12:11:07.329Z,966.78
2017-02-14T12:12:07.397Z,966.82
2017-02-14T12:13:08.076Z,966.83
2017-02-14T12:14:07.674Z,966.87
2017-02-14T12:15:08.223Z,966.83
2017-02-14T12:16:07.896Z,966.80
2017-02-14T12:17:07.634Z,966.81
2017-02-14T12:18:08.262Z,966.83
2017-02-14T12:19:07.837Z,966.83
2017-02-14T12:20:07.306Z,966.80
2017-02-14T12:21:07.808Z,966.84
2017-02-14T12:22:07.318Z,966.81
2017-02-14T12:23:07.979Z,966.80
2017-02-14T12:24:07.517Z,966.81
2017-02-14T12:25:08.008Z,966.82
2017-02-14T12:26:07.565Z,966.82
2017-02-14T12:27:08.206Z,966.83
2017-02-14T12:28:07.792Z,966.86
2017-02-14T12:29:07.312Z,966.83
2017-02-14T12:30:07.850Z,966.86